• Join FlightAware (Why Join?)
  • Login
  • US Flag 
09:56PM EDT


 

Airport Tracker/Info


-or-


 

Live Flight TrackerFlight Track Log ✈ DAL268 ✈ 09-Oct-2013 ✈ KJFK - LLBG / TLV

Flight Track Log - Related Links

Times and Time Zones

All times are in EDT time to prevent confusion due to time zone crossing. See the DAL268 flight status page for this flight to view local times or setup timezone preferences in your user account.

Time Position Orientation Groundspeed Altitude Reporting Facility
EDT Latitude Longitude Course Direction KTS MPH feet Rate Location/Type
09:36PM 40.6330 -73.7780 14° North 125 144  Level FlightAware
09:36PM 40.6450 -73.7680 32° Northeast 172 198 960 Level FlightAware
09:36PM 40.6640 -73.7520 33° Northeast 168 193 800 1,500 Climbing FlightAware
09:37PM 40.6680 -73.7460 49° Northeast 172 198 900 1,200 Climbing FlightAware
09:37PM 40.6700 -73.7370 74° East 178 205 1,100 1,320 Climbing FlightAware
09:37PM 40.6710 -73.7220 85° East 189 217 1,400 1,140 Climbing FlightAware
09:37PM 40.6710 -73.7020 90° East 207 238 1,700 900 Climbing FlightAware
09:38PM 40.6710 -73.6810 90° East 220 253 1,900 900 Climbing FlightAware
09:38PM 40.6780 -73.6410 77° East 241 277 2,400 900 Climbing FlightAware
09:38PM 40.6830 -73.6310 57° Northeast 251 289 2,500 1,200 Climbing FlightAware
09:38PM 40.6940 -73.6170 44° Northeast 257 296 2,800 1,680 Climbing FlightAware
09:39PM 40.7070 -73.6010 43° Northeast 265 305 3,300 1,860 Climbing FlightAware
09:39PM 40.7220 -73.5820 44° Northeast 272 313 3,800 1,800 Climbing FlightAware
09:39PM 40.7460 -73.5530 42° Northeast 281 323 4,500 1,740 Climbing FlightAware
09:40PM 40.7660 -73.5290 42° Northeast 291 335 5,100 1,920 Climbing FlightAware
09:40PM 40.7940 -73.4940 43° Northeast 296 341 6,100 2,040 Climbing FlightAware
09:40PM 40.8150 -73.4690 42° Northeast 301 346 6,800 2,220 Climbing FlightAware
09:41PM 40.8360 -73.4430 43° Northeast 300 345 7,600 2,220 Climbing FlightAware
09:41PM 40.8456 -73.4308 44° Northeast 302 348 7,900 1,860 Climbing FlightAware ADS-B (KSNC)
09:41PM 40.8853 -73.4020 29° Northeast 319 367 8,900 1,980 Climbing FlightAware ADS-B (KSNC)
09:42PM 40.9066 -73.3919 20° North 316 364 9,700 1,680 Climbing FlightAware ADS-B (KSNC)
09:42PM 40.9557 -73.3626 24° Northeast 327 376 10,400 1,200 Climbing FlightAware ADS-B (KSNC)
09:43PM 41.0130 -73.3293 24° Northeast 356 410 11,100 1,080 Climbing FlightAware ADS-B (KSNC)
09:43PM 41.0615 -73.3060 20° North 375 432 11,700 1,080 Climbing FlightAware ADS-B (KSNC)
09:44PM 41.1134 -73.2793 21° North 396 456 12,200 1,080 Climbing FlightAware ADS-B (KSNC)
09:45PM 41.1619 -73.2536 22° Northeast 416 479 12,900 1,440 Climbing FlightAware ADS-B (KSNC)
09:45PM 41.2051 -73.2245 27° Northeast 416 479 13,500 2,040 Climbing FlightAware ADS-B (KSNC)
09:45PM 41.2290 -73.1993 38° Northeast 417 480 14,100 1,920 Climbing FlightAware ADS-B (KSNC)
09:46PM 41.2730 -73.1341 48° Northeast 423 487 15,100 1,680 Climbing FlightAware ADS-B (KSNC)
09:46PM 41.3228 -73.0557 50° Northeast 433 498 16,200 1,620 Climbing FlightAware ADS-B (KSNC)
09:47PM 41.3656 -72.9875 50° Northeast 441 507 17,100 1,680 Climbing FlightAware ADS-B (KSNC)
09:48PM 41.4147 -72.9100 50° Northeast 447 514 18,200 1,560 Climbing FlightAware ADS-B (KSNC)
09:48PM 41.4756 -72.8131 50° Northeast 460 529 19,300 1,380 Climbing FlightAware ADS-B (KSNC)
09:49PM 41.5192 -72.7429 50° Northeast 469 540 20,000 1,320 Climbing FlightAware ADS-B (KSNC)
09:49PM 41.5612 -72.6760 50° Northeast 473 544 20,700 1,440 Climbing FlightAware ADS-B (KSNC)
09:50PM 41.6162 -72.5878 50° Northeast 478 550 21,700 1,320 Climbing FlightAware ADS-B (KSNC)
09:50PM 41.6552 -72.5148 54° Northeast 484 557 22,300 1,200 Climbing FlightAware ADS-B (KSNC)
09:51PM 41.6994 -72.4141 60° Northeast 491 565 23,100 1,200 Climbing FlightAware ADS-B (KSNC)
09:52PM 41.7362 -72.3362 58° Northeast 496 571 23,700 900 Climbing FlightAware ADS-B (KSNC)
09:52PM 41.7777 -72.2468 58° Northeast 506 582 24,100 660 Climbing FlightAware ADS-B (KSNC)
09:53PM 41.8145 -72.1654 59° Northeast 516 594 24,400 720 Climbing FlightAware ADS-B (KSNC)
09:53PM 41.8706 -72.0766 50° Northeast 525 604 24,900 1,020 Climbing FlightAware ADS-B (KSNC)
09:54PM 41.9234 -71.9958 49° Northeast 526 605 25,700 1,320 Climbing FlightAware ADS-B (KSNC)
09:55PM 42.0040 -71.8690 49° Northeast 525 604 26,800 1,020 Climbing FlightAware
09:55PM 42.0570 -71.7890 48° Northeast 526 605 27,100 120 Climbing FlightAware
09:56PM 42.1170 -71.7010 47° Northeast 524 603 27,000  Descending FlightAware
09:56PM 42.1770 -71.6090 49° Northeast 524 603 27,100  Climbing FlightAware
09:57PM 42.2270 -71.5330 48° Northeast 524 603 27,000  Descending FlightAware
09:57PM 42.2004 -71.5747 229° Southwest 524 603 27,100 60 Climbing FlightAware ADS-B (KBOS)
09:58PM 42.3450 -71.3540 48° Northeast 524 603 27,100  Level FlightAware
09:58PM 42.3572 -71.3342 50° Northeast 525 604 27,100  Level FlightAware ADS-B (KBOS)
09:59PM 42.4043 -71.2627 48° Northeast 527 606 27,100  Level FlightAware ADS-B (KBOS)
09:59PM 42.4588 -71.1788 49° Northeast 527 606 27,100  Level FlightAware ADS-B (KBOS)
10:00PM 42.5130 -71.0940 49° Northeast 526 605 27,100 -120 Level FlightAware
10:00PM 42.5401 -71.0523 49° Northeast 527 606 27,000 -120 Descending FlightAware ADS-B (KBOS)
10:01PM 42.6073 -70.9503 48° Northeast 528 608 27,000 60 Level FlightAware ADS-B (KBOS)
10:01PM 42.6575 -70.8706 49° Northeast 529 609 27,100  Climbing FlightAware ADS-B (KBOS)
10:02PM 42.7062 -70.7956 49° Northeast 529 609 27,000 -120 Descending FlightAware ADS-B (KBOS)
10:02PM 42.7557 -70.7180 49° Northeast 528 608 27,000 60 Level FlightAware ADS-B (KBOS)
10:04PM 42.8538 -70.5649 49° Northeast 528 608 27,100 60 Climbing FlightAware ADS-B (KBOS)
10:04PM 42.9060 -70.4850 48° Northeast 527 606 27,100 -180 Level FlightAware
10:04PM 42.9271 -70.4492 51° Northeast 527 606 27,000 -120 Descending FlightAware ADS-B (KBOS)
10:05PM 43.0120 -70.3160 49° Northeast 525 604 27,000 60 Level FlightAware
10:06PM 43.0700 -70.2230 49° Northeast 523 602 27,100 60 Climbing FlightAware
10:06PM 43.0954 -70.1832 49° Northeast 523 602 27,100 -180 Level FlightAware ADS-B (KBOS)
10:07PM 43.1423 -70.1081 49° Northeast 522 601 27,000 -120 Descending FlightAware ADS-B (KBOS)
10:07PM 43.1407 -70.1106 229° Southwest 521 600 27,000  Level FlightAware ADS-B (CYQI)
10:08PM 43.2778 -69.8925 49° Northeast 521 600 27,000  Level FlightAware ADS-B (KBOS)
10:08PM 43.3255 -69.8147 50° Northeast 522 601 27,000  Level FlightAware ADS-B (CYQI)
10:09PM 43.3715 -69.7413 49° Northeast 522 601 27,000 60 Level FlightAware ADS-B (CYQI)
10:10PM 43.4251 -69.6551 49° Northeast 524 603 27,100 60 Climbing FlightAware ADS-B (CYQI)
10:10PM 43.4900 -69.5486 50° Northeast 523 602 27,100  Level FlightAware ADS-B (KBOS)
10:11PM 43.5505 -69.4521 49° Northeast 521 600 27,100  Level FlightAware ADS-B (CYQI)
10:11PM 43.5951 -69.3788 50° Northeast 519 597 27,100 -120 Level FlightAware ADS-B (CYQI)
10:12PM 43.6520 -69.2853 50° Northeast 516 594 27,000 -120 Descending FlightAware ADS-B (CYQI)
10:13PM 43.7130 -69.1847 50° Northeast 515 593 27,000 60 Level FlightAware ADS-B (CYQI)
10:13PM 43.7599 -69.1066 50° Northeast 513 590 27,100 60 Climbing FlightAware ADS-B (CYQI)
10:14PM 43.7790 -69.0890 34° Northeast 521 600 27,100 -120 Level FlightAware
10:14PM 43.8345 -68.9834 54° Northeast 513 590 27,000 -120 Descending FlightAware ADS-B (CYQI)
10:15PM 43.8955 -68.8825 50° Northeast 513 590 27,000 60 Level FlightAware ADS-B (CYQI)
10:15PM 43.9410 -68.8069 50° Northeast 513 590 27,100  Climbing FlightAware ADS-B (CYQI)
10:16PM 44.0224 -68.6703 50° Northeast 512 589 27,000 -120 Descending FlightAware ADS-B (CYQI)
10:17PM 44.0755 -68.5815 50° Northeast 514 592 27,000 60 Level FlightAware ADS-B (CYQI)
10:17PM 44.1290 -68.4923 50° Northeast 514 592 27,100 60 Climbing FlightAware ADS-B (CYQI)
10:18PM 44.1900 -68.3900 50° Northeast 515 593 27,100  Level FlightAware
10:18PM 44.2040 -68.3642 53° Northeast 517 595 27,100  Level FlightAware ADS-B (CYQI)
10:19PM 44.2515 -68.2845 50° Northeast 516 594 27,100  Level FlightAware ADS-B (CYQI)
10:19PM 44.3045 -68.1945 51° Northeast 517 595 27,100 -120 Level FlightAware ADS-B (CYQI)
10:20PM 44.3497 -68.1170 51° Northeast 517 595 27,000 -120 Descending FlightAware ADS-B (CYQI)
10:20PM 44.4024 -68.0265 51° Northeast 517 595 27,000  Level FlightAware ADS-B (CYQI)
10:21PM 44.4580 -67.9330 50° Northeast 516 594 27,000  Level FlightAware
10:21PM 44.4884 -67.8789 52° Northeast 517 595 27,000 60 Level FlightAware ADS-B (CYQI)
10:22PM 44.5444 -67.7824 51° Northeast 518 596 27,100  Climbing FlightAware ADS-B (CYQI)
10:22PM 44.5953 -67.6962 50° Northeast 520 598 27,000  Descending FlightAware ADS-B (CYQI)
10:23PM 44.6408 -67.6150 52° Northeast 520 598 27,100 60 Climbing FlightAware ADS-B (CYQI)
10:23PM 44.6837 -67.5414 51° Northeast 519 597 27,100  Level FlightAware ADS-B (CYSG)
10:24PM 44.7629 -67.4021 51° Northeast 518 596 27,100 -120 Level FlightAware ADS-B (CYQI)
10:25PM 44.8148 -67.3128 51° Northeast 518 596 27,000  Descending FlightAware ADS-B (CYQI)
10:25PM 44.8607 -67.2311 52° Northeast 519 597 27,100  Climbing FlightAware ADS-B (CYQI)
10:26PM 44.9060 -67.1519 51° Northeast 519 597 27,000  Descending FlightAware ADS-B (CYQI)
10:27PM 44.9830 -67.0230 50° Northeast 519 597 27,100 60 Climbing FlightAware
10:27PM 45.0370 -66.9350 49° Northeast 519 597 27,100  Level FlightAware
10:28PM 45.1000 -66.8320 49° Northeast 520 598 27,100 -120 Level FlightAware
10:28PM 45.0489 -66.9149 229° Southwest 521 600 27,000  Descending FlightAware ADS-B (CYQI)
10:29PM 45.1774 -66.7019 49° Northeast 525 604 27,100 60 Climbing FlightAware ADS-B (CYQI)
10:29PM 45.2455 -66.5858 50° Northeast 526 605 27,100  Level FlightAware ADS-B (CYQI)
10:30PM 45.2899 -66.5118 50° Northeast 526 605 27,100  Level FlightAware ADS-B (CYQI)
10:30PM 45.3430 -66.4219 50° Northeast 527 606 27,100  Level FlightAware ADS-B (CYQI)
10:31PM 45.3888 -66.3449 50° Northeast 528 608 27,100  Level FlightAware ADS-B (CYQI)
10:31PM 45.4372 -66.2625 50° Northeast 526 605 27,100 -120 Level FlightAware ADS-B (CYQI)
10:32PM 45.5300 -66.1030 50° Northeast 525 604 27,000  Descending FlightAware
10:33PM 45.5920 -65.9970 50° Northeast 524 603 27,100 60 Climbing FlightAware
10:34PM 45.6380 -65.9170 51° Northeast 519 597 27,100  Level FlightAware
10:34PM 45.6910 -65.8260 50° Northeast 518 596 27,100  Level FlightAware
10:35PM 45.7650 -65.6980 50° Northeast 519 597 27,100  Level FlightAware
10:36PM 45.8380 -65.5720 50° Northeast 519 597 27,100  Level FlightAware
10:36PM 45.8860 -65.4870 51° Northeast 519 597 27,100 -180 Level FlightAware
10:37PM 45.9160 -65.4350 50° Northeast 525 604 27,000  Descending FlightAware ADS-B (CYQI)
10:38PM 45.9780 -65.3230 51° Northeast 519 597 27,100  Climbing FlightAware
10:38PM 46.0240 -65.2410 51° Northeast 519 597 27,100  Level FlightAware
10:39PM 46.0700 -65.1590 51° Northeast 519 597 27,100 -120 Level FlightAware
10:40PM 46.1833 -64.9500 51° Northeast 530 610 27,000 -60 Descending Gander Center
10:41PM 46.2667 -64.7667 57° Northeast 520 598 27,000 60 Level Gander Center
10:42PM 46.3667 -64.6000 49° Northeast 520 598 27,200 480 Climbing Gander Center
10:43PM 46.4500 -64.4333 54° Northeast 530 610 28,000 480 Climbing Gander Center
10:44PM 46.5500 -64.2667 49° Northeast 520 598 28,200 720 Climbing Gander Center
10:45PM 46.6500 -64.1000 49° Northeast 520 598 29,500 1,260 Climbing Gander Center
10:46PM 46.7333 -63.9333 54° Northeast 520 598 30,800 780 Climbing Gander Center
10:47PM 46.8167 -63.7667 54° Northeast 520 598 31,100 60 Climbing Gander Center
10:48PM 46.9000 -63.6000 54° Northeast 520 598 31,000 -60 Descending Gander Center
10:49PM 46.9833 -63.4667 47° Northeast 520 598 31,000  Level Gander Center
10:50PM 47.0833 -63.2667 54° Northeast 510 587 31,000  Level Gander Center
10:51PM 47.1667 -63.1167 51° Northeast 500 575 31,000  Level Gander Center
10:52PM 47.2500 -62.9500 54° Northeast 510 587 31,000  Level Gander Center
10:53PM 47.3333 -62.7833 54° Northeast 510 587 31,000  Level Gander Center
10:54PM 47.4167 -62.6333 51° Northeast 510 587 31,100  Climbing Gander Center
10:55PM 47.5000 -62.4500 56° Northeast 510 587 31,100 -60 Level Gander Center
10:56PM 47.5833 -62.3000 50° Northeast 510 587 31,000 -60 Descending Gander Center
10:57PM 47.6833 -62.1333 48° Northeast 510 587 31,000  Level Gander Center
10:58PM 47.7667 -61.9500 56° Northeast 510 587 31,000  Level Gander Center
10:59PM 47.8500 -61.7833 53° Northeast 510 587 31,100  Climbing Gander Center
11:00PM 47.9333 -61.6000 56° Northeast 510 587 31,100 -60 Level Gander Center
11:01PM 48.0167 -61.4333 53° Northeast 520 598 31,000 -60 Descending Gander Center
11:02PM 48.1000 -61.2500 56° Northeast 510 587 31,000  Level Gander Center
11:03PM 48.1833 -61.1000 50° Northeast 510 587 31,000  Level Gander Center
11:04PM 48.2667 -60.9000 58° Northeast 510 587 31,100  Climbing Gander Center
11:05PM 48.3500 -60.7500 50° Northeast 510 587 31,000  Descending Gander Center
11:11PM 48.8770 -59.6840 50° Northeast 31,100  Climbing FlightAware
11:12PM 48.9380 -59.5540 54° Northeast 514 592 31,100  Level FlightAware
11:12PM 48.9870 -59.4480 55° Northeast 513 590 31,100  Level FlightAware
11:13PM 49.0540 -59.2990 56° Northeast 514 592 31,100  Level FlightAware
11:14PM 49.1010 -59.1950 55° Northeast 514 592 31,100  Level FlightAware
11:14PM 49.1500 -59.0870 55° Northeast 515 593 31,100  Level FlightAware
11:15PM 49.1940 -58.9880 56° Northeast 516 594 31,100  Level FlightAware
11:15PM 49.2440 -58.8800 55° Northeast 516 594 31,100  Level FlightAware
11:16PM 49.2910 -58.7740 56° Northeast 517 595 31,100  Level FlightAware
11:17PM 49.3390 -58.6660 56° Northeast 518 596 31,100  Level FlightAware
11:17PM 49.3850 -58.5620 56° Northeast 519 597 31,100  Level FlightAware
11:18PM 49.4330 -58.4530 56° Northeast 520 598 31,100  Level FlightAware
11:18PM 49.4810 -58.3450 56° Northeast 521 600 31,100  Level FlightAware
11:19PM 49.5280 -58.2370 56° Northeast 524 603 31,100  Level FlightAware
11:19PM 49.5710 -58.1290 58° Northeast 529 609 31,100  Level FlightAware
11:20PM 49.6140 -58.0100 61° Northeast 530 610 31,100  Level FlightAware
11:21PM 49.6550 -57.8940 61° Northeast 531 611 31,100 -120 Level FlightAware
11:21PM 49.6960 -57.7770 62° Northeast 531 611 31,000  Descending FlightAware
11:22PM 49.7360 -57.6600 62° Northeast 530 610 31,100 60 Climbing FlightAware
11:22PM 49.7760 -57.5430 62° Northeast 531 611 31,100  Level FlightAware
11:23PM 49.8160 -57.4250 62° Northeast 531 611 31,100  Level FlightAware
11:24PM 49.8540 -57.3150 62° Northeast 531 611 31,100  Level FlightAware
11:24PM 49.8960 -57.1900 62° Northeast 530 610 31,100  Level FlightAware
11:25PM 49.9360 -57.0720 62° Northeast 530 610 31,100  Level FlightAware
11:25PM 49.9740 -56.9570 63° Northeast 530 610 31,100  Level FlightAware
11:26PM 50.0140 -56.8360 63° Northeast 530 610 31,100  Level FlightAware
11:26PM 50.0530 -56.7210 62° Northeast 530 610 31,100 -120 Level FlightAware
11:27PM 50.0930 -56.5990 63° Northeast 529 609 31,000 -120 Descending FlightAware
11:28PM 50.1310 -56.4840 63° Northeast 526 605 31,000 60 Level FlightAware
11:28PM 50.1690 -56.3660 63° Northeast 524 603 31,100 60 Climbing FlightAware
11:29PM 50.2060 -56.2510 63° Northeast 526 605 31,100  Level FlightAware
11:29PM 50.2470 -56.1290 62° Northeast 528 608 31,100  Level FlightAware
11:30PM 50.2860 -56.0070 63° Northeast 528 608 31,100  Level FlightAware
11:31PM 50.3240 -55.8870 64° Northeast 529 609 31,100  Level FlightAware
11:31PM 50.3620 -55.7700 63° Northeast 530 610 31,100  Level FlightAware
11:32PM 50.3990 -55.6500 64° Northeast 530 610 31,100  Level FlightAware
11:32PM 50.4380 -55.5270 63° Northeast 529 609 31,100  Level FlightAware
11:33PM 50.4760 -55.4060 64° Northeast 530 610 31,100  Level FlightAware
11:33PM 50.5140 -55.2850 64° Northeast 531 611 31,100  Level FlightAware
11:34PM 50.5510 -55.1680 64° Northeast 532 612 31,100 120 Level FlightAware
11:35PM 50.5900 -55.0430 64° Northeast 533 613 31,300 720 Climbing FlightAware
11:35PM 50.6280 -54.9210 64° Northeast 531 611 32,000 600 Climbing FlightAware
11:36PM 50.6760 -54.7650 64° Northeast 530 610 32,100 60 Climbing FlightAware
11:37PM 50.7160 -54.6330 64° Northeast 530 610 32,100 -120 Level FlightAware
11:37PM 50.7640 -54.4770 64° Northeast 528 608 32,000  Descending FlightAware
11:38PM 50.8050 -54.3380 65° Northeast 678 780 32,100  Climbing FlightAware
11:40PM 50.9040 -53.9940 65° Northeast 541 623 32,100  Level FlightAware
11:40PM 50.9290 -53.8530 74° East 544 626 32,100  Level FlightAware
11:41PM 50.9540 -53.7230 73° East 544 626 32,100  Level FlightAware
11:42PM 50.9770 -53.6060 73° East 544 626 32,100  Level FlightAware
11:42PM 51.0000 -53.4850 73° East 544 626 32,100  Level FlightAware
11:43PM 51.0230 -53.3650 73° East 544 626 32,100  Level FlightAware
11:43PM 51.0450 -53.2480 73° East 544 626 32,100  Level FlightAware
11:44PM 51.0680 -53.1310 73° East 544 626 32,100  Level FlightAware
11:45PM 51.0900 -53.0140 73° East 544 626 32,100  Level FlightAware
11:45PM 51.1130 -52.8960 73° East 544 626 32,100  Level FlightAware
11:46PM 51.1350 -52.7790 73° East 544 626 32,100  Level FlightAware
11:46PM 51.1580 -52.6610 73° East 544 626 32,100  Level FlightAware
11:47PM 51.1800 -52.5440 73° East 544 626 32,100  Level FlightAware
11:48PM 51.2030 -52.4260 73° East 544 626 32,100  Level FlightAware
11:48PM 51.2250 -52.3090 73° East 544 626 32,100  Level FlightAware
11:49PM 51.2480 -52.1910 73° East 544 626 32,100  Level FlightAware
11:49PM 51.2700 -52.0740 73° East 544 626 32,100  Level FlightAware
11:50PM 51.2930 -51.9560 73° East 544 626 32,100  Level FlightAware
11:51PM 51.5167 -51.5667 73° East 520 598 32,100 -60 Level Gander Center
11:52PM 51.5667 -51.3667 68° East 520 598 32,000 -60 Descending Gander Center
11:53PM 51.6333 -51.1500 64° Northeast 510 587 32,000  Level Gander Center
11:54PM 51.6833 -50.9333 70° East 520 598 32,000  Level Gander Center
11:55PM 51.7500 -50.7167 64° Northeast 520 598 32,000  Level Gander Center
11:56PM 51.8000 -50.5167 68° East 520 598 32,000  Level Gander Center
11:58PM 51.9171 -50.2155 58° Northeast  Level FlightAware Approximate
12:05AM 52.2969 -48.7428 69° East  Level FlightAware Approximate
12:06AM 52.3474 -48.5286 69° East  Level FlightAware Approximate
12:07AM 52.3976 -48.3140 69° East  Level FlightAware Approximate
12:08AM 52.4473 -48.0989 69° East  Level FlightAware Approximate
12:09AM 52.4967 -47.8834 69° East  Level FlightAware Approximate
12:10AM 52.5456 -47.6673 69° East  Level FlightAware Approximate
12:11AM 52.5942 -47.4507 70° East  Level FlightAware Approximate
12:12AM 52.6423 -47.2337 70° East  Level FlightAware Approximate
12:13AM 52.6901 -47.0162 70° East  Level FlightAware Approximate
12:14AM 52.7375 -46.7982 70° East  Level FlightAware Approximate
12:15AM 52.7845 -46.5798 70° East  Level FlightAware Approximate
12:16AM 52.8310 -46.3609 71° East  Level FlightAware Approximate
12:17AM 52.8777 -46.1418 70° East  Level FlightAware Approximate
12:18AM 52.9239 -45.9222 71° East  Level FlightAware Approximate
12:19AM 52.9698 -45.7021 71° East  Level FlightAware Approximate
12:20AM 53.0152 -45.4817 71° East  Level FlightAware Approximate
12:21AM 53.0603 -45.2607 71° East  Level FlightAware Approximate
12:22AM 53.1049 -45.0393 71° East  Level FlightAware Approximate
12:23AM 53.1491 -44.8174 72° East  Level FlightAware Approximate
12:24AM 53.1929 -44.5951 72° East  Level FlightAware Approximate
12:25AM 53.2363 -44.3723 72° East  Level FlightAware Approximate
12:26AM 53.2793 -44.1490 72° East  Level FlightAware Approximate
12:27AM 53.3218 -43.9253 72° East  Level FlightAware Approximate
12:28AM 53.3640 -43.7012 72° East  Level FlightAware Approximate
12:29AM 53.4057 -43.4766 73° East  Level FlightAware Approximate
12:30AM 53.4470 -43.2516 73° East  Level FlightAware Approximate
12:31AM 53.4879 -43.0262 73° East  Level FlightAware Approximate
12:32AM 53.5283 -42.8003 73° East  Level FlightAware Approximate
12:33AM 53.5684 -42.5740 73° East  Level FlightAware Approximate
12:34AM 53.6089 -42.3477 73° East  Level FlightAware Approximate
12:35AM 53.6490 -42.1210 73° East  Level FlightAware Approximate
12:36AM 53.6886 -41.8939 73° East  Level FlightAware Approximate
12:37AM 53.7279 -41.6663 74° East  Level FlightAware Approximate
12:38AM 53.7667 -41.4384 74° East  Level FlightAware Approximate
12:39AM 53.8051 -41.2100 74° East  Level FlightAware Approximate
12:40AM 53.8430 -40.9811 74° East  Level FlightAware Approximate
12:41AM 53.8805 -40.7519 74° East  Level FlightAware Approximate
12:42AM 53.9176 -40.5223 75° East  Level FlightAware Approximate
12:43AM 53.9542 -40.2922 75° East  Level FlightAware Approximate
12:44AM 53.9904 -40.0618 75° East  Level FlightAware Approximate
12:45AM 54.0391 -39.8383 68° East  Level FlightAware Approximate
12:46AM 54.0928 -39.6144 68° East  Level FlightAware Approximate
12:47AM 54.1460 -39.3899 68° East  Level FlightAware Approximate
12:48AM 54.1989 -39.1648 68° East  Level FlightAware Approximate
12:49AM 54.2513 -38.9391 68° East  Level FlightAware Approximate
12:50AM 54.3041 -38.7134 68° East  Level FlightAware Approximate
12:51AM 54.3576 -38.4879 68° East  Level FlightAware Approximate
12:52AM 54.4107 -38.2618 68° East  Level FlightAware Approximate
12:53AM 54.4633 -38.0351 68° East  Level FlightAware Approximate
12:54AM 54.5156 -37.8079 68° East  Level FlightAware Approximate
12:55AM 54.5674 -37.5800 68° East  Level FlightAware Approximate
12:56AM 54.6194 -37.3520 68° East  Level FlightAware Approximate
12:57AM 54.6710 -37.1235 69° East  Level FlightAware Approximate
12:58AM 54.7221 -36.8943 69° East  Level FlightAware Approximate
12:59AM 54.7728 -36.6646 69° East  Level FlightAware Approximate
01:00AM 54.8231 -36.4342 69° East  Level FlightAware Approximate
01:01AM 54.8729 -36.2034 69° East  Level FlightAware Approximate
01:02AM 54.9223 -35.9719 70° East  Level FlightAware Approximate
01:03AM 54.9713 -35.7399 70° East  Level FlightAware Approximate
01:04AM 55.0198 -35.5073 70° East  Level FlightAware Approximate
01:05AM 55.0678 -35.2742 70° East  Level FlightAware Approximate
01:06AM 55.1153 -35.0404 71° East  Level FlightAware Approximate
01:07AM 55.1620 -34.8058 71° East  Level FlightAware Approximate
01:08AM 55.2083 -34.5708 71° East  Level FlightAware Approximate
01:09AM 55.2541 -34.3351 71° East  Level FlightAware Approximate
01:10AM 55.2995 -34.0990 71° East  Level FlightAware Approximate
01:11AM 55.3444 -33.8623 71° East  Level FlightAware Approximate
01:12AM 55.3888 -33.6250 72° East  Level FlightAware Approximate
01:13AM 55.4328 -33.3873 72° East  Level FlightAware Approximate
01:14AM 55.4763 -33.1490 72° East  Level FlightAware Approximate
01:15AM 55.5194 -32.9101 72° East  Level FlightAware Approximate
01:16AM 55.5620 -32.6708 72° East  Level FlightAware Approximate
01:17AM 55.6041 -32.4309 73° East  Level FlightAware Approximate
01:18AM 55.6458 -32.1906 73° East  Level FlightAware Approximate
01:19AM 55.6869 -31.9497 73° East  Level FlightAware Approximate
01:20AM 55.7276 -31.7083 73° East  Level FlightAware Approximate
01:21AM 55.7679 -31.4664 73° East  Level FlightAware Approximate
01:22AM 55.8077 -31.2241 74° East  Level FlightAware Approximate
01:23AM 55.8469 -30.9812 74° East  Level FlightAware Approximate
01:24AM 55.8857 -30.7378 74° East  Level FlightAware Approximate
01:25AM 55.9241 -30.4940 74° East  Level FlightAware Approximate
01:26AM 55.9619 -30.2496 74° East  Level FlightAware Approximate
01:27AM 55.9993 -30.0048 75° East  Level FlightAware Approximate
01:28AM 56.0091 -29.7516 86° East  Level FlightAware Approximate
01:29AM 56.0179 -29.4982 86° East  Level FlightAware Approximate
01:30AM 56.0262 -29.2450 87° East  Level FlightAware Approximate
01:31AM 56.0340 -28.9918 87° East  Level FlightAware Approximate
01:32AM 56.0412 -28.7384 87° East  Level FlightAware Approximate
01:33AM 56.0479 -28.4849 87° East  Level FlightAware Approximate
01:34AM 56.0541 -28.2314 87° East  Level FlightAware Approximate
01:35AM 56.0597 -27.9778 88° East  Level FlightAware Approximate
01:36AM 56.0649 -27.7241 88° East  Level FlightAware Approximate
01:37AM 56.0695 -27.4703 88° East  Level FlightAware Approximate
01:38AM 56.0736 -27.2165 88° East  Level FlightAware Approximate
01:39AM 56.0772 -26.9627 88° East  Level FlightAware Approximate
01:40AM 56.0803 -26.7088 89° East  Level FlightAware Approximate
01:41AM 56.0829 -26.4548 89° East  Level FlightAware Approximate
01:42AM 56.0849 -26.2009 89° East  Level FlightAware Approximate
01:43AM 56.0864 -25.9469 89° East  Level FlightAware Approximate
01:44AM 56.0873 -25.6929 89° East  Level FlightAware Approximate
01:45AM 56.0878 -25.4388 90° East  Level FlightAware Approximate
01:46AM 56.0877 -25.1848 90° East  Level FlightAware Approximate
01:47AM 56.0872 -24.9308 90° East  Level FlightAware Approximate
01:48AM 56.0861 -24.6768 90° East  Level FlightAware Approximate
01:49AM 56.0844 -24.4228 91° East  Level FlightAware Approximate
01:50AM 56.0830 -24.1688 90° East  Level FlightAware Approximate
01:51AM 56.0820 -23.9149 90° East  Level FlightAware Approximate
01:52AM 56.0805 -23.6609 91° East  Level FlightAware Approximate
01:53AM 56.0784 -23.4069 91° East  Level FlightAware Approximate
01:54AM 56.0758 -23.1530 91° East  Level FlightAware Approximate
01:55AM 56.0727 -22.8992 91° East  Level FlightAware Approximate
01:56AM 56.0690 -22.6453 91° East  Level FlightAware Approximate
01:57AM 56.0649 -22.3916 92° East  Level FlightAware Approximate
01:58AM 56.0602 -22.1378 92° East  Level FlightAware Approximate
01:59AM 56.0550 -21.8842 92° East  Level FlightAware Approximate
02:00AM 56.0493 -21.6306 92° East  Level FlightAware Approximate
02:01AM 56.0430 -21.3771 92° East  Level FlightAware Approximate
02:02AM 56.0363 -21.1237 93° East  Level FlightAware Approximate
02:03AM 56.0290 -20.8704 93° East  Level FlightAware Approximate
02:04AM 56.0212 -20.6171 93° East  Level FlightAware Approximate
02:05AM 56.0129 -20.3640 93° East  Level FlightAware Approximate
02:06AM 56.0040 -20.1110 93° East  Level FlightAware Approximate
02:07AM 55.9850 -19.8604 101° East  Level FlightAware Approximate
02:08AM 55.9578 -19.6119 101° East  Level FlightAware Approximate
02:09AM 55.9301 -19.3636 101° East  Level FlightAware Approximate
02:10AM 55.9019 -19.1158 101° East  Level FlightAware Approximate
02:11AM 55.8732 -18.8683 102° East  Level FlightAware Approximate
02:12AM 55.8441 -18.6212 102° East  Level FlightAware Approximate
02:13AM 55.8144 -18.3745 102° East  Level FlightAware Approximate
02:14AM 55.7842 -18.1281 102° East  Level FlightAware Approximate
02:15AM 55.7536 -17.8821 102° East  Level FlightAware Approximate
02:16AM 55.7225 -17.6365 103° East  Level FlightAware Approximate
02:17AM 55.6908 -17.3913 103° East  Level FlightAware Approximate
02:18AM 55.6587 -17.1466 103° East  Level FlightAware Approximate
02:19AM 55.6261 -16.9022 103° East  Level FlightAware Approximate
02:20AM 55.5930 -16.6582 103° East  Level FlightAware Approximate
02:21AM 55.5594 -16.4146 104° East  Level FlightAware Approximate
02:22AM 55.5254 -16.1715 104° East  Level FlightAware Approximate
02:23AM 55.4908 -15.9288 104° East  Level FlightAware Approximate
02:24AM 55.4558 -15.6865 104° East  Level FlightAware Approximate
02:25AM 55.4203 -15.4446 104° East  Level FlightAware Approximate
02:26AM 55.3844 -15.2032 105° East  Level FlightAware Approximate
02:27AM 55.3479 -14.9622 105° East  Level FlightAware Approximate
02:28AM 55.3110 -14.7216 105° East  Level FlightAware Approximate
02:29AM 55.2736 -14.4816 105° East  Level FlightAware Approximate
02:30AM 55.2358 -14.2423 105° East  Level FlightAware Approximate
02:31AM 55.1975 -14.0035 106° East  Level FlightAware Approximate
02:32AM 55.1588 -13.7652 106° East  Level FlightAware Approximate
02:33AM 55.1196 -13.5274 106° East  Level FlightAware Approximate
02:34AM 55.0800 -13.2900 106° East  Level FlightAware Approximate
02:35AM 55.0398 -13.0531 106° East  Level FlightAware Approximate
02:36AM 54.9993 -12.8167 107° East  Level FlightAware Approximate
02:37AM 54.9582 -12.5807 107° East  Level FlightAware Approximate
02:37AM 55.4450 -13.1150 107° East 515 593 35,100  Level FlightAware
02:37AM 55.3970 -12.9610 119° Southeast 515 593 35,100  Level FlightAware
02:38AM 55.3560 -12.8290 119° Southeast 515 593 35,100  Level FlightAware
02:38AM 55.3150 -12.6970 119° Southeast 512 589 35,100  Level FlightAware
02:39AM 55.2760 -12.5720 119° Southeast 512 589 35,100  Level FlightAware
02:40AM 55.2300 -12.4220 118° Southeast 513 590 35,100  Level FlightAware
02:40AM 55.1840 -12.2790 119° Southeast 514 592 35,100  Level FlightAware
02:41AM 55.1480 -12.1660 119° Southeast 515 593 35,100  Level FlightAware
02:41AM 55.1080 -12.0420 119° Southeast 515 593 35,100  Level FlightAware
02:42AM 55.0600 -11.8920 119° Southeast 520 598 35,100  Level FlightAware
02:43AM 55.0310 -11.8010 119° Southeast 520 598 35,100  Level FlightAware
02:43AM 54.9780 -11.6400 120° Southeast 522 601 35,100  Level FlightAware
02:44AM 54.9430 -11.5310 119° Southeast 523 602 35,100  Level FlightAware
02:44AM 54.9000 -11.3990 119° Southeast 523 602 35,100  Level FlightAware
02:45AM 54.8590 -11.2760 120° Southeast 524 603 35,100  Level FlightAware
02:46AM 54.8100 -11.1270 120° Southeast 524 603 35,100  Level FlightAware
02:46AM 54.7740 -11.0210 120° Southeast 524 603 35,100  Level FlightAware
02:47AM 54.7310 -10.8910 120° Southeast 520 598 35,100  Level FlightAware
02:47AM 54.6890 -10.7680 121° Southeast 520 598 35,100  Level FlightAware
02:48AM 54.6450 -10.6380 120° Southeast 520 598 35,100  Level FlightAware
02:48AM 54.6030 -10.5150 120° Southeast 521 600 35,100  Level FlightAware
02:49AM 54.5530 -10.3670 120° Southeast 520 598 35,100  Level FlightAware
02:50AM 54.5170 -10.2630 121° Southeast 521 600 35,100 -120 Level FlightAware
02:50AM 54.4750 -10.1320 119° Southeast 521 600 35,000  Descending FlightAware
02:51AM 54.4470 -10.0180 113° Southeast 513 590 35,100 60 Climbing FlightAware
02:51AM 54.4588 -10.0719 291° West 518 596 35,100  Level FlightAware ADS-B
02:52AM 54.3920 -9.7320 109° East 514 592 35,100  Level FlightAware
02:52AM 54.3717 -9.6237 108° East 514 592 35,100  Level FlightAware ADS-B
02:53AM 54.3390 -9.4580 109° East 513 590 35,100  Level FlightAware
02:53AM 54.3251 -9.3848 108° East 514 592 35,100  Level FlightAware ADS-B
02:54AM 54.2940 -9.2268 109° East 515 593 35,100  Level FlightAware ADS-B
02:55AM 54.2629 -9.0730 109° East 515 593 35,100  Level FlightAware ADS-B
02:55AM 54.2386 -8.9504 109° East 515 593 35,100  Level FlightAware ADS-B
02:56AM 54.2151 -8.8351 109° East 516 594 35,100  Level FlightAware ADS-B
02:56AM 54.1870 -8.6972 109° East 516 594 35,100  Level FlightAware ADS-B
02:57AM 54.1644 -8.5861 109° East 516 594 35,100  Level FlightAware ADS-B
02:58AM 54.1389 -8.4637 110° East 516 594 35,100  Level FlightAware ADS-B
02:58AM 54.1140 -8.3448 110° East 517 595 35,100 -120 Level FlightAware ADS-B
02:59AM 54.0709 -8.1361 110° East 500 575 35,000  Descending FlightAware UK
02:59AM 54.0650 -8.1075 110° East 517 595 35,100 120 Climbing FlightAware ADS-B
02:59AM 54.0398 -7.9895 110° East 516 594 35,100  Level FlightAware ADS-B
03:00AM 53.9979 -7.7911 110° East 517 595 35,100  Level FlightAware ADS-B
03:01AM 53.9741 -7.6808 110° East 516 594 35,100  Level FlightAware ADS-B
03:01AM 53.9448 -7.5444 110° East 515 593 35,100  Level FlightAware ADS-B
03:02AM 53.9172 -7.4190 110° East 516 594 35,100 -120 Level FlightAware ADS-B (EIDW / DUB)
03:03AM 53.8916 -7.3017 110° East 516 594 35,000  Descending FlightAware ADS-B (EIDW / DUB)
03:03AM 53.8601 -7.1582 110° East 516 594 35,100 60 Climbing FlightAware ADS-B
03:04AM 53.8320 -7.0300 110° East 516 594 35,100  Level FlightAware ADS-B (EIDW / DUB)
03:04AM 53.7963 -6.8718 111° Southeast 516 594 35,100 -120 Level FlightAware ADS-B (EIDW / DUB)
03:05AM 53.7693 -6.7473 111° Southeast 498 573 35,000  Descending FlightAware UK
03:05AM 53.7639 -6.7248 111° Southeast 517 595 35,100 120 Climbing FlightAware ADS-B
03:06AM 53.7350 -6.5969 111° Southeast 517 595 35,100  Level FlightAware ADS-B
03:06AM 53.7087 -6.4803 111° Southeast 517 595 35,100  Level FlightAware ADS-B
03:07AM 53.6793 -6.3526 111° Southeast 518 596 35,100  Level FlightAware ADS-B
03:07AM 53.6528 -6.2362 111° Southeast 518 596 35,100  Level FlightAware ADS-B
03:08AM 53.6275 -6.1275 111° Southeast 520 598 35,100  Level FlightAware ADS-B (EIDW / DUB)
03:08AM 53.5999 -6.0109 112° Southeast 520 598 35,100  Level FlightAware ADS-B (EIDW / DUB)
03:09AM 53.5704 -5.8832 111° Southeast 520 598 35,100  Level FlightAware ADS-B
03:09AM 53.5431 -5.7668 112° Southeast 519 597 35,100 -120 Level FlightAware ADS-B
03:10AM 53.5149 -5.6352 110° East 507 583 35,000 -120 Descending FlightAware ADS-B
03:10AM 53.5013 -5.5054 110° East 496 571 35,000 120 Level FlightAware UK
03:11AM 53.5003 -5.4833 110° East 491 565 35,100 120 Climbing FlightAware ADS-B
03:11AM 53.4963 -5.3703 93° East 484 557 35,100  Level FlightAware ADS-B
03:12AM 53.4930 -5.2574 93° East 487 560 35,100  Level FlightAware ADS-B (EGGP / LPL)
03:12AM 53.4980 -5.4340 273° West 487 560 35,100  Level FlightAware ADS-B (EGBS)
03:12AM 53.4914 -5.2121 93° East 488 562 35,100  Level FlightAware ADS-B
03:12AM 53.4863 -5.0872 94° East 491 565 35,100  Level FlightAware ADS-B
03:13AM 53.4829 -5.0114 94° East 491 565 35,100  Level FlightAware ADS-B
03:13AM 53.4750 -4.8405 94° East 494 568 35,100  Level FlightAware ADS-B
03:14AM 53.4754 -4.8516 274° West 493 567 35,100  Level FlightAware ADS-B
03:14AM 53.4696 -4.7296 95° East 494 568 35,100  Level FlightAware ADS-B
03:14AM 53.4641 -4.6153 95° East 495 570 35,100  Level FlightAware ADS-B (EGXW / WTN)
03:15AM 53.4626 -4.5845 95° East 495 570 35,100  Level FlightAware ADS-B (EGBS)
03:15AM 53.4600 -4.5275 94° East 494 568 35,100  Level FlightAware ADS-B
03:15AM 53.4600 -4.5275 50° Northeast 495 570 35,100  Level FlightAware ADS-B (EGBS)
03:15AM 53.4566 -4.4552 94° East 494 568 35,100  Level FlightAware ADS-B
03:15AM 53.4559 -4.4436 96° East 494 568 35,100  Level FlightAware ADS-B
03:15AM 53.4543 -4.4094 95° East 494 568 35,100  Level FlightAware ADS-B
03:16AM 53.4527 -4.3751 95° East 494 568 35,100  Level FlightAware ADS-B
03:16AM 53.4497 -4.3140 95° East 494 568 35,100  Level FlightAware ADS-B
03:16AM 53.4467 -4.2527 95° East 495 570 35,100  Level FlightAware ADS-B
03:17AM 53.4378 -4.0739 95° East 493 567 35,100  Level FlightAware ADS-B (EGXW / WTN)
03:17AM 53.4369 -4.0547 95° East 492 566 35,100  Level FlightAware ADS-B
03:17AM 53.4347 -4.0170 96° East 495 570 35,100  Level FlightAware ADS-B
03:18AM 53.4174 -3.8759 102° East 505 581 35,100  Level FlightAware ADS-B
03:18AM 53.3966 -3.7242 103° East 503 579 35,100  Level FlightAware ADS-B (EGXW / WTN)
03:19AM 53.3789 -3.5996 103° East 502 578 35,100  Level FlightAware ADS-B (EGGP / LPL)
03:19AM 53.3757 -3.5767 103° East 502 578 35,100  Level FlightAware ADS-B
03:19AM 53.3668 -3.5166 104° East 502 578 35,100  Level FlightAware ADS-B
03:20AM 53.3562 -3.4452 104° East 504 580 35,100  Level FlightAware ADS-B
03:20AM 53.3485 -3.4115 111° Southeast 516 594 35,100  Level FlightAware ADS-B (EGXW / WTN)
03:20AM 53.3397 -3.3784 114° Southeast 522 601 35,100  Level FlightAware ADS-B
03:20AM 53.3227 -3.3289 120° Southeast 539 620 35,100  Level FlightAware ADS-B
03:20AM 53.3082 -3.2984 128° Southeast 549 632 35,100  Level FlightAware ADS-B
03:20AM 53.3143 -3.3117 308° West 548 631 35,100  Level FlightAware ADS-B
03:20AM 53.3012 -3.2852 130° Southeast 545 627 35,100  Level FlightAware ADS-B
03:21AM 53.2652 -3.2231 134° Southeast 562 647 35,100 -240 Level FlightAware ADS-B
03:21AM 53.2233 -3.1518 134° Southeast 559 643 35,000 -180 Descending FlightAware ADS-B (EGXW / WTN)
03:21AM 53.2050 -3.1177 132° Southeast 557 641 35,000  Level FlightAware ADS-B
03:21AM 53.1978 -3.1050 134° Southeast 551 634 35,000 180 Level FlightAware ADS-B (EGCD)
03:22AM 53.1514 -3.0203 132° Southeast 555 639 35,100 180 Climbing FlightAware ADS-B
03:22AM 53.1464 -3.0108 131° Southeast 550 633 35,100  Level FlightAware ADS-B (EGCD)
03:22AM 53.1284 -2.9797 134° Southeast 550 633 35,100  Level FlightAware ADS-B
03:22AM 53.0984 -2.9265 133° Southeast 557 641 35,100 -180 Level FlightAware ADS-B
03:23AM 53.0498 -2.8426 134° Southeast 558 642 35,000 -240 Descending FlightAware ADS-B (EGFH / SWS)
03:23AM 53.0425 -2.8272 128° Southeast 559 643 35,000  Level FlightAware ADS-B
03:23AM 52.9862 -2.7306 134° Southeast 560 644 35,000 60 Level FlightAware ADS-B
03:24AM 52.9616 -2.6870 133° Southeast 560 644 35,100 180 Climbing FlightAware ADS-B (EGDM)
03:24AM 52.9311 -2.6341 134° Southeast 560 644 35,100  Level FlightAware ADS-B
03:24AM 52.9377 -2.6437 319° Northwest 560 644 35,100  Level FlightAware ADS-B
03:24AM 52.8703 -2.5288 134° Southeast 559 643 35,100  Level FlightAware ADS-B
03:25AM 52.8265 -2.4517 133° Southeast 560 644 35,100  Level FlightAware ADS-B (EGBS)
03:25AM 52.8140 -2.4303 134° Southeast 559 643 35,100 -240 Level FlightAware ADS-B
03:25AM 52.7733 -2.3592 133° Southeast 560 644 35,000 -180 Descending FlightAware ADS-B (EGBS)
03:25AM 52.7516 -2.3223 134° Southeast 560 644 35,000 180 Level FlightAware ADS-B
03:26AM 52.7196 -2.2666 133° Southeast 562 647 35,100 180 Climbing FlightAware ADS-B (EGBS)
03:26AM 52.6965 -2.2266 134° Southeast 562 647 35,100  Level FlightAware ADS-B
03:26AM 52.6610 -2.1678 135° Southeast 562 647 35,100  Level FlightAware ADS-B (EGBS)
03:26AM 52.6423 -2.1341 132° Southeast 562 647 35,100 -240 Level FlightAware ADS-B
03:27AM 52.6078 -2.0754 134° Southeast 564 649 35,000  Descending FlightAware ADS-B (EGBS)
03:27AM 52.5925 -2.0509 136° Southeast 558 642 35,100 540 Climbing FlightAware ADS-B (EGHH / BOH)
03:27AM 52.5862 -2.0386 130° Southeast 564 649 35,100  Level FlightAware ADS-B
03:27AM 52.5727 -2.0171 136° Southeast 558 642 35,100  Level FlightAware ADS-B
03:27AM 52.5843 -2.0356 316° Northwest 558 642 35,100  Level FlightAware ADS-B
03:27AM 52.5298 -1.9434 134° Southeast 564 649 35,100  Level FlightAware ADS-B
03:28AM 52.5111 -1.9128 135° Southeast 558 642 35,100  Level FlightAware ADS-B
03:28AM 52.4739 -1.8482 133° Southeast 564 649 35,100 -240 Level FlightAware ADS-B
03:28AM 52.4558 -1.8176 134° Southeast 564 649 35,000  Descending FlightAware ADS-B
03:29AM 52.4146 -1.7474 134° Southeast 564 649 35,100 180 Climbing FlightAware ADS-B
03:29AM 52.4018 -1.7260 134° Southeast 564 649 35,100  Level FlightAware ADS-B (EGFH / SWS)
03:29AM 52.3598 -1.6557 134° Southeast 565 650 35,100  Level FlightAware ADS-B
03:29AM 52.3416 -1.6251 134° Southeast 566 651 35,100 -240 Level FlightAware ADS-B (EGDM)
03:30AM 52.3043 -1.5639 135° Southeast 566 651 35,000  Descending FlightAware ADS-B
03:30AM 52.2974 -1.5518 133° Southeast 566 651 35,100 120 Climbing FlightAware ADS-B (EGXW / WTN)
03:30AM 52.2323 -1.4448 135° Southeast 562 647 35,100  Level FlightAware ADS-B (EGUO)
03:30AM 52.2305 -1.4416 132° Southeast 568 654 35,100  Level FlightAware ADS-B
03:31AM 52.1864 -1.3684 134° Southeast 563 648 35,100  Level FlightAware ADS-B
03:31AM 52.1751 -1.3502 135° Southeast 569 655 35,100  Level FlightAware ADS-B
03:31AM 52.1424 -1.2952 134° Southeast 563 648 35,100  Level FlightAware ADS-B
03:31AM 52.1187 -1.2557 134° Southeast 569 655 35,100  Level FlightAware ADS-B
03:32AM 52.0776 -1.1890 135° Southeast 568 654 35,100  Level FlightAware ADS-B (EGDX / DGX)
03:32AM 52.0133 -1.0833 135° Southeast 560 644 35,100  Level FlightAware ADS-B (EGHH / BOH)
03:32AM 52.0035 -1.0651 131° Southeast 566 651 35,100  Level FlightAware ADS-B
03:33AM 51.9740 -1.0171 135° Southeast 559 643 35,100  Level FlightAware ADS-B
03:33AM 51.9485 -0.9750 135° Southeast 563 648 35,100  Level FlightAware ADS-B
03:33AM 51.9201 -0.9294 135° Southeast 557 641 35,100  Level FlightAware ADS-B
03:33AM 51.8903 -0.8784 133° Southeast 562 647 35,100  Level FlightAware ADS-B
03:34AM 51.8552 -0.8212 135° Southeast 561 646 35,100 -240 Level FlightAware ADS-B
03:34AM 51.8356 -0.7883 134° Southeast 559 643 35,000  Descending FlightAware ADS-B
03:34AM 51.7982 -0.7256 134° Southeast 558 642 35,100  Climbing FlightAware ADS-B (EGLG)
03:34AM 51.7808 -0.6958 133° Southeast 559 643 35,000  Descending FlightAware ADS-B
03:35AM 51.7422 -0.6334 135° Southeast 554 638 35,100 180 Climbing FlightAware ADS-B (EGHH / BOH)
03:35AM 51.7262 -0.6065 134° Southeast 559 643 35,100  Level FlightAware ADS-B
03:35AM 51.6874 -0.5440 135° Southeast 553 636 35,100 -240 Level FlightAware ADS-B (EGHH / BOH)
03:35AM 51.6710 -0.5173 135° Southeast 559 643 35,000  Descending FlightAware ADS-B
03:36AM 51.6512 -0.4850 135° Southeast 552 635 35,100 180 Climbing FlightAware ADS-B (EGHH / BOH)
03:36AM 51.6167 -0.4288 135° Southeast 559 643 35,100 -240 Level FlightAware ADS-B
03:36AM 51.5969 -0.3929 132° Southeast 556 640 35,000 -480 Descending FlightAware ADS-B (EGDM)
03:36AM 51.5934 -0.3870 134° Southeast 554 638 35,000  Level FlightAware ADS-B
03:36AM 51.5776 -0.3550 128° Southeast 540 621 35,000  Level FlightAware ADS-B
03:36AM 51.5765 -0.3517 119° Southeast 538 619 35,000  Level FlightAware ADS-B (EGHH / BOH)
03:36AM 51.5631 -0.3142 120° Southeast 524 603 35,000  Level FlightAware ADS-B
03:37AM 51.5563 -0.2933 118° Southeast 515 593 35,000  Level FlightAware ADS-B (EGDM)
03:37AM 51.5545 -0.2828 106° East 512 589 35,000  Level FlightAware ADS-B
03:37AM 51.5464 -0.2400 107° East 493 567 35,000  Level FlightAware ADS-B (EGLG)
03:37AM 51.5441 -0.2220 102° East 489 563 35,000  Level FlightAware ADS-B
03:37AM 51.5407 -0.1761 97° East 480 552 35,000 240 Level FlightAware ADS-B
03:37AM 51.5391 -0.1443 95° East 480 552 35,100 240 Climbing FlightAware ADS-B
03:37AM 51.5363 -0.1015 96° East 484 557 35,100  Level FlightAware ADS-B (EGHH / BOH)
03:37AM 51.5354 -0.0909 97° East 486 559 35,100  Level FlightAware ADS-B
03:38AM 51.5278 -0.0228 100° East 497 572 35,100 -240 Level FlightAware ADS-B
03:38AM 51.5250 -0.0047 104° East 500 575 35,000  Descending FlightAware ADS-B
03:38AM 51.5107 0.0853 104° East 502 578 35,100 240 Climbing FlightAware ADS-B
03:38AM 51.5116 0.0817 291° West 502 578 35,100 -240 Level FlightAware ADS-B
03:39AM 51.4964 0.1753 105° East 500 575 35,000 -240 Descending FlightAware ADS-B (EGLG)
03:39AM 51.4935 0.1969 102° East 499 574 35,000 120 Level FlightAware ADS-B
03:39AM 51.4771 0.3084 103° East 500 575 35,100 120 Climbing FlightAware ADS-B
03:39AM 51.4774 0.3085 North 500 575 35,100  Level FlightAware ADS-B (EGLG)
03:40AM 51.4601 0.4241 103° East 503 579 35,100  Level FlightAware ADS-B
03:40AM 51.4774 0.3085 284° West 500 575 35,100  Level FlightAware ADS-B (EGLG)
03:40AM 51.4430 0.5363 104° East 505 581 35,100  Level FlightAware ADS-B
03:41AM 51.4369 0.5732 105° East 504 580 35,100  Level FlightAware ADS-B (EGMD / LYX)
03:41AM 51.4310 0.6126 104° East 506 582 35,100  Level FlightAware ADS-B
03:41AM 51.4256 0.6452 105° East 506 582 35,100 -480 Level FlightAware ADS-B
03:41AM 51.4233 0.6598 104° East 506 582 35,000  Descending FlightAware ADS-B
03:41AM 51.4079 0.7578 104° East 506 582 35,100 60 Climbing FlightAware ADS-B
03:42AM 51.3909 0.8669 104° East 506 582 35,100  Level FlightAware ADS-B (EGMD / LYX)
03:42AM 51.3903 0.8703 106° East 507 583 35,100  Level FlightAware ADS-B
03:42AM 51.3805 0.9323 104° East 505 581 35,100 -180 Level FlightAware ADS-B (EGMD / LYX)
03:42AM 51.3708 0.9939 104° East 507 583 35,000 -180 Descending FlightAware ADS-B
03:43AM 51.3605 1.0591 104° East 507 583 35,000 120 Level FlightAware ADS-B
03:43AM 51.3448 1.1571 104° East 507 583 35,100 120 Climbing FlightAware ADS-B
03:44AM 51.3348 1.2187 105° East 508 585 35,100  Level FlightAware ADS-B
03:44AM 51.3331 1.2296 104° East 508 585 35,100  Level FlightAware ADS-B
03:44AM 51.3122 1.3564 105° East 508 585 35,100 -120 Level FlightAware ADS-B (EGMD / LYX)
03:45AM 51.2937 1.4726 104° East 508 585 35,000  Descending FlightAware ADS-B (EGMD / LYX)
03:45AM 51.2752 1.5848 105° East 509 586 35,100  Climbing FlightAware ADS-B (EGMD / LYX)
03:46AM 51.2569 1.6972 105° East 508 585 35,000  Descending FlightAware ADS-B
03:46AM 51.2389 1.8056 105° East 508 585 35,100 60 Climbing FlightAware ADS-B
03:47AM 51.2181 1.9282 105° East 511 588 35,100  Level FlightAware ADS-B
03:47AM 51.1869 2.0355 115° Southeast 517 595 35,100 -120 Level FlightAware ADS-B (EGMD / LYX)
03:48AM 51.1540 2.1376 117° Southeast 519 597 35,000  Descending FlightAware ADS-B
03:48AM 51.1159 2.2606 116° Southeast 518 596 35,100 60 Climbing FlightAware ADS-B
03:49AM 51.0849 2.3637 116° Southeast 519 597 35,100  Level FlightAware ADS-B
03:49AM 51.0533 2.4704 115° Southeast 519 597 35,100 -120 Level FlightAware ADS-B
03:50AM 51.0155 2.5997 115° Southeast 510 587 35,000  Descending FlightAware UK
03:50AM 50.9910 2.6800 115° Southeast 519 597 35,100 60 Climbing FlightAware
03:51AM 50.9500 2.8100 117° Southeast 521 600 35,100  Level FlightAware
03:52AM 50.9090 2.9350 117° Southeast 520 598 35,100 -120 Level FlightAware
03:52AM 50.8735 3.0494 117° Southeast 506 582 35,000  Descending FlightAware UK
03:52AM 50.8750 3.0440 117° Southeast 521 600 35,100 120 Climbing FlightAware
03:53AM 50.8380 3.1600 117° Southeast 521 600 35,100 -120 Level FlightAware
03:53AM 50.7949 3.2944 117° Southeast 508 585 35,000  Descending FlightAware UK
03:54AM 50.7920 3.3020 117° Southeast 521 600 35,100 120 Climbing FlightAware
03:54AM 50.7540 3.4170 118° Southeast 521 600 35,100  Level FlightAware
03:55AM 50.7130 3.5450 117° Southeast 520 598 35,100  Level FlightAware
03:55AM 50.6760 3.6560 118° Southeast 521 600 35,100  Level FlightAware
03:56AM 50.6340 3.7840 117° Southeast 521 600 35,100  Level FlightAware
03:56AM 50.6000 3.8890 117° Southeast 521 600 35,100 -120 Level FlightAware
03:57AM 50.5630 4.0023 117° Southeast 508 585 35,000 -180 Descending FlightAware UK
03:57AM 50.5560 4.0190 117° Southeast 522 601 35,000 120 Level FlightAware
03:58AM 50.5200 4.1270 117° Southeast 522 601 35,100  Climbing FlightAware
03:58AM 50.5156 4.1432 117° Southeast 1 1 35,000  Descending FlightAware UK
03:58AM 50.4800 4.2470 118° Southeast 521 600 35,100 60 Climbing FlightAware
03:59AM 50.4390 4.3680 118° Southeast 522 601 35,100  Level FlightAware
03:59AM 50.3970 4.4910 118° Southeast 522 601 35,100 -120 Level FlightAware
04:00AM 50.3600 4.6010 118° Southeast 521 600 35,000  Descending FlightAware
04:01AM 50.3200 4.7170 118° Southeast 521 600 35,100 60 Climbing FlightAware
04:01AM 50.2790 4.8370 118° Southeast 522 601 35,100  Level FlightAware
04:02AM 50.2420 4.9460 118° Southeast 522 601 35,100  Level FlightAware
04:02AM 50.2010 5.0620 119° Southeast 522 601 35,100  Level FlightAware
04:03AM 50.1590 5.1840 118° Southeast 524 603 35,100  Level FlightAware
04:03AM 50.1250 5.2810 119° Southeast 524 603 35,100  Level FlightAware
04:04AM 50.0830 5.4000 119° Southeast 524 603 35,100  Level FlightAware
04:05AM 50.0380 5.5250 119° Southeast 524 603 35,100 -120 Level FlightAware
04:05AM 49.9980 5.6410 118° Southeast 524 603 35,000  Descending FlightAware
04:06AM 49.9560 5.7590 119° Southeast 524 603 35,100 60 Climbing FlightAware
04:06AM 49.9080 5.8930 119° Southeast 521 600 35,100  Level FlightAware
04:07AM 49.8660 6.0110 119° Southeast 521 600 35,100  Level FlightAware
04:08AM 49.8250 6.1220 120° Southeast 521 600 35,100  Level FlightAware
04:08AM 49.7760 6.2580 119° Southeast 520 598 35,100  Level FlightAware
04:09AM 49.7370 6.3650 119° Southeast 520 598 35,100  Level FlightAware
04:09AM 49.6920 6.4870 120° Southeast 518 596 35,100  Level FlightAware
04:10AM 49.6510 6.5960 120° Southeast 516 594 35,100 -120 Level FlightAware
04:11AM 49.6080 6.7140 119° Southeast 514 592 35,000  Descending FlightAware
04:11AM 49.5660 6.8280 120° Southeast 509 586 35,100 60 Climbing FlightAware
04:12AM 49.5170 6.9530 121° Southeast 509 586 35,100  Level FlightAware
04:13AM 49.4630 7.0680 126° Southeast 511 588 35,100  Level FlightAware
04:13AM 49.4140 7.1700 126° Southeast 509 586 35,100  Level FlightAware
04:14AM 49.3640 7.2710 127° Southeast 508 585 35,100 -120 Level FlightAware
04:14AM 49.3120 7.3780 127° Southeast 508 585 35,000  Descending FlightAware
04:15AM 49.2630 7.4780 127° Southeast 508 585 35,100  Climbing FlightAware
04:16AM 49.2120 7.5820 127° Southeast 511 588 35,000  Descending FlightAware
04:16AM 49.1620 7.6830 127° Southeast 513 590 35,100 60 Climbing FlightAware
04:17AM 49.1110 7.7880 127° Southeast 514 592 35,100  Level FlightAware
04:17AM 49.0630 7.8830 128° Southeast 515 593 35,100  Level FlightAware
04:18AM 49.0130 7.9840 127° Southeast 514 592 35,100  Level FlightAware
04:19AM 48.9610 8.0870 128° Southeast 511 588 35,100  Level FlightAware
04:19AM 48.9140 8.1820 127° Southeast 511 588 35,100  Level FlightAware
04:20AM 48.8520 8.3040 128° Southeast 510 587 35,100  Level FlightAware
04:20AM 48.8080 8.3920 127° Southeast 508 585 35,100  Level FlightAware
04:21AM 48.7570 8.4930 127° Southeast 507 583 35,100  Level FlightAware
04:21AM 48.7080 8.5880 128° Southeast 505 581 35,100  Level FlightAware
04:22AM 48.6540 8.6940 128° Southeast 506 582 35,100  Level FlightAware
04:23AM 48.5910 8.8170 128° Southeast 503 579 35,100  Level FlightAware
04:23AM 48.5380 8.9190 128° Southeast 503 579 35,100  Level FlightAware
04:24AM 48.4930 9.0050 128° Southeast 503 579 35,100  Level FlightAware
04:25AM 48.4420 9.1040 128° Southeast 500 575 35,100  Level FlightAware
04:25AM 48.3890 9.1950 131° Southeast 487 560 35,100  Level FlightAware
04:26AM 48.3230 9.2730 142° Southeast 483 556 35,100  Level FlightAware
04:26AM 48.2650 9.3400 142° Southeast 484 557 35,100  Level FlightAware
04:27AM 48.2060 9.4150 140° Southeast 486 559 35,100  Level FlightAware
04:27AM 48.1400 9.4910 142° Southeast 485 558 35,100  Level FlightAware
04:28AM 48.0780 9.5620 143° Southeast 487 560 35,100  Level FlightAware
04:29AM 48.0180 9.6300 143° Southeast 490 564 35,100  Level FlightAware
04:29AM 47.9520 9.7060 142° Southeast 493 567 35,100  Level FlightAware
04:30AM 47.8880 9.7790 143° Southeast 496 571 35,100  Level FlightAware
04:30AM 47.8736 9.7956 142° Southeast 490 564 35,100  Level FlightAware ADS-B (ETSE)
04:30AM 47.8185 9.8580 143° Southeast 492 566 35,100  Level FlightAware ADS-B (ETSE)
04:31AM 47.7620 9.9220 143° Southeast 498 573 35,100  Level FlightAware
04:32AM 47.6980 9.9950 142° Southeast 497 572 35,100  Level FlightAware
04:32AM 47.6430 10.0570 143° Southeast 496 571 35,100  Level FlightAware
04:32AM 47.6205 10.0812 144° Southeast 490 564 35,100 -180 Level FlightAware ADS-B (ETSE)
04:33AM 47.5564 10.1526 143° Southeast 493 567 35,000  Descending FlightAware ADS-B (ETSE)
04:33AM 47.4901 10.2279 142° Southeast 486 559 35,100  Climbing FlightAware ADS-B (ETSE)
04:34AM 47.4293 10.2946 143° Southeast 486 559 35,000  Descending FlightAware ADS-B (ETSE)
04:35AM 47.3748 10.3550 143° Southeast 483 556 35,100 60 Climbing FlightAware ADS-B (ETSE)
04:35AM 47.3062 10.4310 143° Southeast 482 555 35,100  Level FlightAware ADS-B (ETSE)
04:36AM 47.2519 10.4908 143° Southeast 483 556 35,100  Level FlightAware ADS-B (ETSE)
04:36AM 47.1933 10.5548 143° Southeast 485 558 35,100  Level FlightAware ADS-B (ETSE)
04:37AM 47.1130 10.6450 143° Southeast 493 567 35,100  Level FlightAware
04:37AM 47.0900 10.6690 145° Southeast 488 562 35,100  Level FlightAware ADS-B (ETSE)
04:38AM 47.0349 10.7262 145° Southeast 489 563 35,100  Level FlightAware ADS-B (ETSE)
04:38AM 46.9724 10.7711 154° Southeast 473 544 35,100  Level FlightAware ADS-B (ETSE)
04:39AM 46.9110 10.8070 158° South 479 551 35,100  Level FlightAware
04:39AM 46.8904 10.8187 159° South 480 552 35,100  Level FlightAware ADS-B (ETSE)
04:39AM 46.8350 10.8490 159° South 481 554 35,100 -180 Level FlightAware
04:39AM 46.8106 10.8631 158° South 476 548 35,000 360 Descending FlightAware ADS-B (ETSE)
04:40AM 46.7667 10.9023 148° Southeast 501 577 35,300 960 Climbing FlightAware ADS-B (ETSE)
04:40AM 46.7323 10.9499 137° Southeast 513 590 35,700 1,560 Climbing FlightAware ADS-B (ETSE)
04:41AM 46.6813 11.0357 131° Southeast 500 575 36,700 1,200 Climbing FlightAware ADS-B (ETSE)
04:41AM 46.6282 11.1263 131° Southeast 501 577 37,100 300 Climbing FlightAware ADS-B (ETSE)
04:42AM 46.5808 11.2065 131° Southeast 502 578 37,100 -120 Level FlightAware ADS-B (ETSE)
04:42AM 46.5253 11.3022 130° Southeast 503 579 37,000  Descending FlightAware ADS-B (ETSE)
04:43AM 46.4741 11.3873 131° Southeast 502 578 37,100 60 Climbing FlightAware ADS-B (ETSE)
04:43AM 46.4296 11.4618 131° Southeast 503 579 37,100  Level FlightAware ADS-B (ETSE)
04:44AM 46.3684 11.5645 131° Southeast 504 580 37,100  Level FlightAware ADS-B (ETSE)
04:45AM 46.3024 11.6724 131° Southeast 510 587 37,100 -120 Level FlightAware ADS-B (ETSE)
04:45AM 46.2421 11.7727 131° Southeast 512 589 37,000  Descending FlightAware ADS-B (ETSE)
04:46AM 46.1916 11.8575 131° Southeast 511 588 37,100 60 Climbing FlightAware ADS-B (ETSE)
04:47AM 46.1443 11.9342 132° Southeast 509 586 37,100  Level FlightAware ADS-B (ETSE)
04:47AM 46.0819 12.0357 132° Southeast 507 583 37,100  Level FlightAware ADS-B (ETSE)
04:48AM 46.0243 12.1318 131° Southeast 507 583 37,100  Level FlightAware ADS-B (ETSE)
04:48AM 45.9730 12.2150 132° Southeast 507 583 37,100  Level FlightAware
04:48AM 45.9621 12.2326 132° Southeast 507 583 37,100  Level FlightAware ADS-B (ETSE)
04:49AM 45.9069 12.3207 132° Southeast 506 582 37,100  Level FlightAware ADS-B (ETSE)
04:50AM 45.8466 12.4186 131° Southeast 505 581 37,100  Level FlightAware ADS-B (ETSE)
04:50AM 45.7872 12.5158 131° Southeast 499 574 37,100  Level FlightAware ADS-B (ETSE)
04:51AM 45.7287 12.6081 132° Southeast 505 581 37,100  Level FlightAware ADS-B (ETSE)
04:52AM 45.6788 12.6878 132° Southeast 506 582 37,100  Level FlightAware ADS-B (ETSE)
04:52AM 45.6305 12.7647 132° Southeast 506 582 37,100  Level FlightAware ADS-B (ETSE)
04:53AM 45.5795 12.8468 132° Southeast 505 581 37,100  Level FlightAware ADS-B (ETSE)
04:54AM 45.4840 12.9980 132° Southeast 507 583 37,100  Level FlightAware
04:54AM 45.4260 13.0900 132° Southeast 509 586 37,100  Level FlightAware
04:55AM 45.3740 13.1720 132° Southeast 509 586 37,100  Level FlightAware
04:55AM 45.3190 13.2590 132° Southeast 511 588 37,100  Level FlightAware
04:56AM 45.2640 13.3430 133° Southeast 511 588 37,100  Level FlightAware
04:57AM 45.2090 13.4300 132° Southeast 512 589 37,100  Level FlightAware
04:57AM 45.1510 13.5200 132° Southeast 513 590 37,100 -120 Level FlightAware
04:58AM 45.0950 13.6060 133° Southeast 514 592 37,000  Descending FlightAware
04:58AM 45.0500 13.6900 127° Southeast 518 596 37,100 60 Climbing FlightAware
04:59AM 45.0000 13.7890 126° Southeast 517 595 37,100  Level FlightAware
04:59AM 44.9440 13.8950 127° Southeast 516 594 37,100  Level FlightAware
05:00AM 44.8960 13.9870 126° Southeast 517 595 37,100  Level FlightAware
05:01AM 44.8500 14.0780 125° Southeast 518 596 37,100  Level FlightAware
05:01AM 44.8000 14.1770 125° Southeast 518 596 37,100  Level FlightAware
05:02AM 44.7520 14.2700 126° Southeast 518 596 37,100  Level FlightAware
05:02AM 44.7060 14.3600 126° Southeast 519 597 37,100  Level FlightAware
05:03AM 44.6540 14.4610 126° Southeast 520 598 37,100  Level FlightAware
05:04AM 44.6010 14.5620 126° Southeast 522 601 37,100  Level FlightAware
05:04AM 44.5500 14.6630 125° Southeast 524 603 37,100  Level FlightAware
05:05AM 44.5040 14.7480 127° Southeast 524 603 37,100  Level FlightAware
05:05AM 44.4540 14.8470 125° Southeast 525 604 37,100  Level FlightAware
05:06AM 44.4010 14.9480 126° Southeast 526 605 37,100  Level FlightAware
05:06AM 44.3480 15.0500 126° Southeast 527 606 37,100  Level FlightAware
05:07AM 44.3010 15.1380 127° Southeast 526 605 37,100  Level FlightAware
05:08AM 44.2510 15.2330 126° Southeast 525 604 37,100  Level FlightAware
05:08AM 44.2010 15.3260 127° Southeast 526 605 37,100  Level FlightAware
05:09AM 44.1550 15.4130 126° Southeast 521 600 37,100  Level FlightAware
05:09AM 44.0930 15.5300 126° Southeast 526 605 37,100  Level FlightAware
05:10AM 44.0380 15.6330 127° Southeast 526 605 37,100  Level FlightAware
05:11AM 43.9650 15.7680 127° Southeast 525 604 37,100  Level FlightAware
05:12AM 43.9080 15.8730 127° Southeast 524 603 37,100  Level FlightAware
05:12AM 43.8620 15.9590 127° Southeast 523 602 37,100  Level FlightAware
05:13AM 43.8080 16.0580 127° Southeast 522 601 37,100  Level FlightAware
05:13AM 43.7600 16.1460 127° Southeast 521 600 37,100  Level FlightAware
05:14AM 43.7070 16.2410 128° Southeast 519 597 37,100  Level FlightAware
05:14AM 43.6570 16.3340 127° Southeast 518 596 37,100  Level FlightAware
05:15AM 43.6040 16.4310 127° Southeast 516 594 37,100  Level FlightAware
05:16AM 43.5590 16.5120 127° Southeast 512 589 37,100 -120 Level FlightAware
05:16AM 43.5060 16.6070 128° Southeast 508 585 37,000  Descending FlightAware
05:17AM 43.4580 16.6950 127° Southeast 507 583 37,100 60 Climbing FlightAware
05:17AM 43.4030 16.7940 127° Southeast 505 581 37,100  Level FlightAware
05:18AM 43.3600 16.8700 128° Southeast 503 579 37,100  Level FlightAware
05:19AM 43.3080 16.9610 128° Southeast 502 578 37,100  Level FlightAware
05:19AM 43.2560 17.0570 127° Southeast 502 578 37,100  Level FlightAware
05:20AM 43.2040 17.1480 128° Southeast 502 578 37,100  Level FlightAware
05:20AM 43.1590 17.2260 128° Southeast 504 580 37,100  Level FlightAware
05:21AM 43.1050 17.3220 128° Southeast 507 583 37,100  Level FlightAware
05:21AM 43.0580 17.4060 127° Southeast 510 587 37,100  Level FlightAware
05:22AM 43.0040 17.5000 128° Southeast 511 588 37,100  Level FlightAware
05:23AM 42.9530 17.5890 128° Southeast 513 590 37,100  Level FlightAware
05:23AM 42.9060 17.6710 128° Southeast 514 592 37,100 -120 Level FlightAware
05:24AM 42.8510 17.7650 129° Southeast 514 592 37,000  Descending FlightAware
05:24AM 42.7970 17.8600 128° Southeast 515 593 37,100 60 Climbing FlightAware
05:25AM 42.7470 17.9460 128° Southeast 516 594 37,100  Level FlightAware
05:26AM 42.6990 18.0280 129° Southeast 518 596 37,100  Level FlightAware
05:26AM 42.6450 18.1200 129° Southeast 518 596 37,100  Level FlightAware
05:27AM 42.5910 18.2140 128° Southeast 519 597 37,100  Level FlightAware
05:27AM 42.5370 18.2980 131° Southeast 519 597 37,100  Level FlightAware
05:28AM 42.4770 18.3810 134° Southeast 519 597 37,100 -120 Level FlightAware
05:28AM 42.4220 18.4540 136° Southeast 521 600 37,000  Descending FlightAware
05:29AM 42.3570 18.5390 136° Southeast 521 600 37,100 60 Climbing FlightAware
05:30AM 42.3020 18.6120 136° Southeast 520 598 37,100  Level FlightAware
05:30AM 42.2360 18.7010 135° Southeast 519 597 37,100  Level FlightAware
05:31AM 42.1790 18.7790 135° Southeast 517 595 37,100  Level FlightAware
05:31AM 42.1210 18.8560 135° Southeast 515 593 37,100  Level FlightAware
05:32AM 42.0600 18.9370 135° Southeast 514 592 37,100 -120 Level FlightAware
05:33AM 42.0000 19.0180 135° Southeast 513 590 37,000  Descending FlightAware
05:33AM 41.9390 19.0990 135° Southeast 511 588 37,100  Climbing FlightAware
05:34AM 41.8890 19.1630 136° Southeast 511 588 37,000  Descending FlightAware
05:34AM 41.8260 19.2480 135° Southeast 511 588 37,100 60 Climbing FlightAware
05:35AM 41.7630 19.3260 137° Southeast 511 588 37,100  Level FlightAware
05:35AM 41.6980 19.4020 139° Southeast 509 586 37,100  Level FlightAware
05:36AM 41.6430 19.4630 140° Southeast 509 586 37,100  Level FlightAware
05:37AM 41.5830 19.5300 140° Southeast 509 586 37,100  Level FlightAware
05:37AM 41.5080 19.6150 140° Southeast 509 586 37,100 -120 Level FlightAware
05:38AM 41.4620 19.6650 141° Southeast 508 585 37,000  Descending FlightAware
05:38AM 41.3930 19.7490 138° Southeast 509 586 37,100 60 Climbing FlightAware
05:39AM 41.3270 19.8380 135° Southeast 509 586 37,100  Level FlightAware
05:40AM 41.2610 19.9250 135° Southeast 508 585 37,100  Level FlightAware
05:40AM 41.2060 20.0010 134° Southeast 508 585 37,100 -120 Level FlightAware
05:41AM 41.1420 20.0870 135° Southeast 507 583 37,000 -120 Descending FlightAware
05:41AM 41.0830 20.1640 135° Southeast 507 583 37,000 60 Level FlightAware
05:42AM 41.0160 20.2540 135° Southeast 506 582 37,100 60 Climbing FlightAware
05:43AM 40.9560 20.3330 135° Southeast 505 581 37,100  Level FlightAware
05:43AM 40.8970 20.4100 135° Southeast 505 581 37,100  Level FlightAware
05:44AM 40.8440 20.4820 134° Southeast 506 582 37,100 -120 Level FlightAware
05:44AM 40.7850 20.5590 135° Southeast 507 583 37,000  Descending FlightAware
05:45AM 40.7260 20.6380 135° Southeast 507 583 37,100 60 Climbing FlightAware
05:46AM 40.6760 20.7070 134° Southeast 508 585 37,100  Level FlightAware
05:46AM 40.6000 20.8060 135° Southeast 508 585 37,100  Level FlightAware
05:47AM 40.5410 20.8820 136° Southeast 508 585 37,100 120 Level FlightAware
05:48AM 40.4920 20.9420 137° Southeast 511 588 37,300 480 Climbing FlightAware
05:48AM 40.4400 21.0050 137° Southeast 510 587 37,700 1,020 Climbing FlightAware
05:49AM 40.3480 21.1080 140° Southeast 511 588 38,500 900 Climbing FlightAware
05:50AM 40.2580 21.2120 139° Southeast 515 593 39,100 360 Climbing FlightAware
05:50AM 40.1920 21.2860 139° Southeast 516 594 39,100  Level FlightAware
05:51AM 40.1310 21.3560 139° Southeast 517 595 39,100 -120 Level FlightAware
05:51AM 40.0740 21.4220 138° Southeast 517 595 39,000  Descending FlightAware
05:52AM 40.0070 21.4980 139° Southeast 519 597 39,100 60 Climbing FlightAware
05:52AM 39.9380 21.5760 139° Southeast 521 600 39,100  Level FlightAware
05:53AM 39.8860 21.6340 139° Southeast 523 602 39,100  Level FlightAware
05:54AM 39.8170 21.7130 139° Southeast 525 604 39,100  Level FlightAware
05:54AM 39.7380 21.8010 139° Southeast 523 602 39,100  Level FlightAware
05:55AM 39.6680 21.8790 139° Southeast 521 600 39,100  Level FlightAware
05:56AM 39.6090 21.9460 139° Southeast 518 596 39,100  Level FlightAware
05:56AM 39.5450 22.0170 139° Southeast 519 597 39,100  Level FlightAware
05:57AM 39.4840 22.0840 140° Southeast 518 596 39,100  Level FlightAware
05:57AM 39.4160 22.1610 139° Southeast 517 595 39,100  Level FlightAware
05:58AM 39.3520 22.2310 140° Southeast 517 595 39,100  Level FlightAware
05:58AM 39.2940 22.2950 139° Southeast 517 595 39,100  Level FlightAware
05:59AM 39.2230 22.3730 140° Southeast 517 595 39,100  Level FlightAware
06:00AM 39.1670 22.4350 139° Southeast 518 596 39,100  Level FlightAware
06:00AM 39.1040 22.5030 140° Southeast 517 595 39,100  Level FlightAware
06:01AM 39.0330 22.5830 139° Southeast 517 595 39,100  Level FlightAware
06:01AM 38.9690 22.6510 140° Southeast 517 595 39,100  Level FlightAware
06:02AM 38.9090 22.7160 140° Southeast 518 596 39,100  Level FlightAware
06:03AM 38.8420 22.7900 139° Southeast 520 598 39,100  Level FlightAware
06:03AM 38.7800 22.8570 140° Southeast 520 598 39,100  Level FlightAware
06:04AM 38.7200 22.9210 140° Southeast 518 596 39,100  Level FlightAware
06:04AM 38.6510 22.9960 140° Southeast 517 595 39,100  Level FlightAware
06:05AM 38.5870 23.0650 140° Southeast 516 594 39,100  Level FlightAware
06:05AM 38.5250 23.1310 140° Southeast 515 593 39,100  Level FlightAware
06:06AM 38.4580 23.2030 140° Southeast 515 593 39,100  Level FlightAware
06:07AM 38.3930 23.2720 140° Southeast 516 594 39,100  Level FlightAware
06:07AM 38.3330 23.3360 140° Southeast 516 594 39,100 -120 Level FlightAware
06:08AM 38.2610 23.4120 140° Southeast 517 595 39,000  Descending FlightAware
06:08AM 38.2050 23.4710 140° Southeast 520 598 39,100 60 Climbing FlightAware
06:09AM 38.1380 23.5430 140° Southeast 521 600 39,100  Level FlightAware
06:10AM 38.0700 23.6140 141° Southeast 521 600 39,100  Level FlightAware
06:10AM 38.0070 23.6800 140° Southeast 521 600 39,100  Level FlightAware
06:11AM 37.9430 23.7480 140° Southeast 522 601 39,100  Level FlightAware
06:11AM 37.8920 23.8050 139° Southeast 527 606 39,100 -120 Level FlightAware
06:12AM 37.8550 23.8630 129° Southeast 536 617 39,000  Descending FlightAware
06:12AM 37.8160 23.9410 122° Southeast 538 619 39,100 60 Climbing FlightAware
06:13AM 37.7710 24.0350 121° Southeast 538 619 39,100  Level FlightAware
06:13AM 37.7280 24.1200 123° Southeast 538 619 39,100  Level FlightAware
06:14AM 37.6810 24.2120 123° Southeast 538 619 39,100  Level FlightAware
06:14AM 37.6300 24.3080 124° Southeast 538 619 39,100  Level FlightAware
06:15AM 37.5850 24.3920 124° Southeast 539 620 39,100  Level FlightAware
06:15AM 37.5400 24.4830 122° Southeast 540 621 39,100  Level FlightAware
06:16AM 37.4920 24.5820 121° Southeast 538 619 39,100  Level FlightAware
06:17AM 37.4480 24.6690 122° Southeast 538 619 39,100  Level FlightAware
06:17AM 37.4010 24.7650 122° Southeast 537 618 39,100  Level FlightAware
06:18AM 37.3540 24.8570 123° Southeast 538 619 39,100  Level FlightAware
06:18AM 37.3060 24.9550 122° Southeast 538 619 39,100  Level FlightAware
06:19AM 37.2630 25.0400 122° Southeast 537 618 39,100  Level FlightAware
06:20AM 37.2140 25.1380 122° Southeast 537 618 39,100  Level FlightAware
06:20AM 37.1670 25.2320 122° Southeast 538 619 39,100  Level FlightAware
06:21AM 37.1240 25.3140 123° Southeast 538 619 39,100  Level FlightAware
06:21AM 37.0730 25.4170 122° Southeast 539 620 39,100  Level FlightAware
06:22AM 37.0280 25.5040 123° Southeast 537 618 39,100  Level FlightAware
06:22AM 36.9790 25.6000 123° Southeast 537 618 39,100  Level FlightAware
06:23AM 36.9330 25.6890 123° Southeast 536 617 39,100  Level FlightAware
06:24AM 36.8900 25.7760 122° Southeast 536 617 39,100  Level FlightAware
06:24AM 36.8440 25.8640 123° Southeast 534 615 39,100  Level FlightAware
06:25AM 36.7950 25.9600 122° Southeast 533 613 39,100  Level FlightAware
06:25AM 36.7480 26.0500 123° Southeast 532 612 39,100  Level FlightAware
06:26AM 36.7020 26.1400 122° Southeast 531 611 39,100  Level FlightAware
06:27AM 36.6540 26.2300 124° Southeast 531 611 39,100  Level FlightAware
06:27AM 36.6050 26.3250 123° Southeast 530 610 39,100  Level FlightAware
06:28AM 36.5610 26.4120 122° Southeast 529 609 39,100  Level FlightAware
06:28AM 36.5130 26.5010 124° Southeast 527 606 39,100  Level FlightAware
06:29AM 36.4650 26.5950 122° Southeast 525 604 39,100  Level FlightAware
06:30AM 36.4180 26.6830 124° Southeast 522 601 39,100  Level FlightAware
06:30AM 36.3700 26.7730 124° Southeast 522 601 39,100  Level FlightAware
06:31AM 36.3280 26.8530 123° Southeast 522 601 39,100  Level FlightAware
06:31AM 36.2800 26.9430 123° Southeast 522 601 39,100  Level FlightAware
06:32AM 36.2320 27.0350 123° Southeast 522 601 39,100  Level FlightAware
06:33AM 36.1860 27.1210 124° Southeast 522 601 39,100  Level FlightAware
06:33AM 36.1320 27.2200 124° Southeast 525 604 39,100  Level FlightAware
06:34AM 36.0830 27.3130 123° Southeast 526 605 39,100  Level FlightAware
06:34AM 36.0400 27.3930 124° Southeast 527 606 39,100  Level FlightAware
06:35AM 35.9910 27.4840 124° Southeast 528 608 39,100  Level FlightAware
06:35AM 35.9420 27.5740 124° Southeast 530 610 39,100  Level FlightAware
06:36AM 35.8920 27.6670 124° Southeast 530 610 39,100  Level FlightAware
06:37AM 35.8490 27.7480 123° Southeast 531 611 39,100  Level FlightAware
06:37AM 35.7990 27.8380 124° Southeast 530 610 39,100  Level FlightAware
06:38AM 35.7530 27.9210 124° Southeast 530 610 39,100  Level FlightAware
06:38AM 35.7040 28.0110 124° Southeast 530 610 39,100  Level FlightAware
06:39AM 35.6540 28.1040 123° Southeast 531 611 39,100  Level FlightAware
06:40AM 35.6060 28.1910 124° Southeast 533 613 39,100  Level FlightAware
06:40AM 35.5380 28.3140 124° Southeast 536 617 39,100  Level FlightAware
06:41AM 35.4880 28.4020 125° Southeast 537 618 39,100  Level FlightAware
06:41AM 35.4440 28.4830 124° Southeast 537 618 39,100  Level FlightAware
06:42AM 35.3930 28.5740 124° Southeast 539 620 39,100  Level FlightAware
06:43AM 35.3380 28.6720 125° Southeast 540 621 39,100  Level FlightAware
06:43AM 35.2960 28.7480 124° Southeast 540 621 39,100  Level FlightAware
06:44AM 35.2430 28.8410 125° Southeast 539 620 39,100  Level FlightAware
06:44AM 35.1980 28.9240 124° Southeast 538 619 39,100  Level FlightAware
06:45AM 35.1480 29.0120 125° Southeast 537 618 39,100  Level FlightAware
06:46AM 35.0970 29.1020 125° Southeast 536 617 39,100  Level FlightAware
06:46AM 35.0520 29.1810 125° Southeast 536 617 39,100  Level FlightAware
06:47AM 35.0130 29.2510 124° Southeast 537 618 39,100  Level FlightAware
06:47AM 34.9480 29.3650 125° Southeast 537 618 39,100  Level FlightAware
06:48AM 34.9040 29.4420 125° Southeast 537 618 39,100  Level FlightAware
06:48AM 34.8550 29.5270 125° Southeast 539 620 39,100  Level FlightAware
06:49AM 34.7990 29.6270 124° Southeast 539 620 39,100  Level FlightAware
06:50AM 34.7580 29.6960 126° Southeast 540 621 39,100  Level FlightAware
06:50AM 34.7090 29.7840 124° Southeast 540 621 39,100  Level FlightAware
06:51AM 34.6430 29.8950 126° Southeast 537 618 39,100  Level FlightAware
06:52AM 34.5970 29.9780 124° Southeast 537 618 39,100  Level FlightAware
06:53AM 34.5160 30.1370 122° Southeast 545 627 39,100  Level FlightAware
06:53AM 34.4610 30.2530 120° Southeast 546 628 39,100  Level FlightAware
06:54AM 34.4080 30.3640 120° Southeast 547 629 39,100  Level FlightAware
06:54AM 34.3700 30.4410 121° Southeast 547 629 39,100  Level FlightAware
06:55AM 34.3250 30.5360 120° Southeast 548 631 39,100  Level FlightAware
06:56AM 34.2920 30.6020 121° Southeast 547 629 39,100  Level FlightAware
06:56AM 34.2330 30.7230 121° Southeast 548 631 39,100  Level FlightAware
06:57AM 34.1870 30.8180 120° Southeast 547 629 39,100  Level FlightAware
06:57AM 34.1470 30.9000 120° Southeast 544 626 39,100  Level FlightAware
06:58AM 34.0990 30.9940 122° Southeast 543 625 39,100  Level FlightAware
06:59AM 34.0490 31.0960 121° Southeast 542 624 39,100  Level FlightAware
06:59AM 34.0030 31.1910 120° Southeast 542 624 39,100  Level FlightAware
07:00AM 33.9640 31.2690 121° Southeast 541 623 39,100  Level FlightAware
07:00AM 33.9210 31.3550 121° Southeast 542 624 39,100  Level FlightAware
07:01AM 33.8690 31.4620 120° Southeast 541 623 39,100  Level FlightAware
07:01AM 33.8280 31.5420 122° Southeast 544 626 39,100  Level FlightAware
07:02AM 33.7770 31.6440 121° Southeast 540 621 39,100  Level FlightAware
07:03AM 33.7300 31.7370 121° Southeast 540 621 39,100  Level FlightAware
07:03AM 33.6910 31.8170 120° Southeast 539 620 39,100 -480 Level FlightAware
07:04AM 33.6440 31.9090 122° Southeast 537 618 38,600 -1,140 Descending FlightAware
07:04AM 33.5980 31.9990 122° Southeast 539 620 37,800 -1,320 Descending FlightAware
07:05AM 33.5540 32.0840 122° Southeast 539 620 37,100 -1,320 Descending FlightAware
07:05AM 33.5100 32.1720 121° Southeast 541 623 36,300 -1,080 Descending FlightAware
07:06AM 33.4660 32.2720 118° Southeast 536 617 35,900 -600 Descending FlightAware
07:07AM 33.4410 32.3780 106° East 533 613 35,600 -540 Descending FlightAware
07:07AM 33.4230 32.4660 104° East 529 609 35,300 -540 Descending FlightAware
07:08AM 33.4010 32.5740 104° East 526 605 35,000 -1,260 Descending FlightAware
07:08AM 33.3820 32.6670 104° East 523 602 33,800 -2,520 Descending FlightAware
07:09AM 33.3610 32.7770 103° East 522 601 32,000 -2,400 Descending FlightAware
07:10AM 33.3440 32.8610 104° East 521 600 31,100 -900 Descending FlightAware
07:10AM 33.3220 32.9490 107° East 518 596 31,100  Level FlightAware
07:11AM 33.2800 33.0350 120° Southeast 516 594 31,100 -660 Level FlightAware
07:11AM 33.2340 33.1010 130° Southeast 510 587 30,400 -2,280 Descending FlightAware
07:12AM 33.1510 33.2190 130° Southeast 498 573 27,900 -2,640 Descending FlightAware
07:13AM 33.0960 33.2980 130° Southeast 482 555 26,400 -2,340 Descending FlightAware
07:13AM 33.0510 33.3620 130° Southeast 475 547 25,200 -1,200 Descending FlightAware
07:14AM 32.9980 33.4440 128° Southeast 466 536 25,000 -960 Descending FlightAware
07:14AM 32.9810 33.4880 115° Southeast 462 532 24,300 -2,280 Descending FlightAware
07:15AM 32.9710 33.5350 104° East 458 527 23,500 -1,980 Descending FlightAware
07:15AM 32.9660 33.6260 94° East 438 504 22,500 -1,620 Descending FlightAware
07:16AM 32.9630 33.7110 92° East 417 480 21,600 -1,440 Descending FlightAware
07:16AM 32.9590 33.7820 94° East 398 458 20,900 -1,260 Descending FlightAware
07:17AM 32.9550 33.8610 93° East 378 435 20,200 -1,200 Descending FlightAware
07:17AM 32.9520 33.9320 93° East 360 414 19,500 -1,320 Descending FlightAware
07:18AM 32.9460 34.0030 96° East 353 406 18,600 -1,620 Descending FlightAware
07:18AM 32.9390 34.0240 112° Southeast 350 403 18,200 -1,740 Descending FlightAware
07:19AM 32.9210 34.0470 133° Southeast 344 396 17,800 -1,740 Descending FlightAware
07:19AM 32.9050 34.0580 150° Southeast 337 388 17,400 -1,800 Descending FlightAware
07:19AM 32.8920 34.0620 166° South 331 381 17,200 -1,500 Descending FlightAware
07:19AM 32.8750 34.0630 177° South 327 376 16,900 -1,500 Descending FlightAware
07:20AM 32.8200 34.0630 180° South 319 367 16,000 -1,440 Descending FlightAware
07:21AM 32.7510 34.0630 180° South 310 357 14,900 -1,440 Descending FlightAware
07:21AM 32.7100 34.0620 181° South 305 351 14,200 -1,080 Descending FlightAware
07:22AM 32.6290 34.0600 181° South 300 345 13,300 -1,560 Descending FlightAware
07:23AM 32.5580 34.0690 174° South 296 341 11,400 -1,920 Descending FlightAware
07:23AM 32.5400 34.0850 143° Southeast 292 336 11,200 -1,140 Descending FlightAware
07:24AM 32.5100 34.1210 135° Southeast 285 328 10,500 -1,320 Descending FlightAware
07:24AM 32.4850 34.1520 134° Southeast 282 325 9,900 -1,320 Descending FlightAware
07:25AM 32.4620 34.1800 134° Southeast 280 322 9,400 -1,380 Descending FlightAware
07:25AM 32.4440 34.2020 134° Southeast 279 321 8,900 -1,200 Descending FlightAware
07:25AM 32.4260 34.2240 134° Southeast 280 322 8,600 -780 Descending FlightAware
07:26AM 32.4080 34.2460 134° Southeast 280 322 8,400 -600 Descending FlightAware
07:26AM 32.3860 34.2720 135° Southeast 278 320 8,200 -540 Descending FlightAware
07:26AM 32.3750 34.2850 135° Southeast 277 319 8,100 -720 Descending FlightAware
07:27AM 32.3550 34.3100 133° Southeast 275 316 7,800 -960 Descending FlightAware
07:27AM 32.3390 34.3280 136° Southeast 272 313 7,500 -1,020 Descending FlightAware
07:27AM 32.3130 34.3600 134° Southeast 269 310 7,000 -1,080 Descending FlightAware
07:28AM 32.2910 34.3870 134° Southeast 267 307 6,500 -1,200 Descending FlightAware
07:28AM 32.2750 34.4060 135° Southeast 266 306 6,100 -1,200 Descending FlightAware
07:28AM 32.2600 34.4240 135° Southeast 263 303 5,800 -1,200 Descending FlightAware
07:29AM 32.2440 34.4420 136° Southeast 261 300 5,400 -1,200 Descending FlightAware
07:29AM 32.2280 34.4650 129° Southeast 261 300 5,000 -780 Descending FlightAware
07:29AM 32.2150 34.4880 124° Southeast 264 304 4,900 -180 Descending FlightAware
07:30AM 32.2010 34.5140 122° Southeast 264 304 4,900  Level FlightAware
07:31AM 32.2150 34.4880 302° West 260 299 4,900  Level FlightAware
07:31AM 32.1360 34.6400 122° Southeast 259 298 4,900  Level FlightAware
07:32AM 32.1310 34.6500 121° Southeast 258 297 4,900  Level FlightAware
07:32AM 32.1140 34.6800 124° Southeast 258 297 4,900  Level FlightAware
07:32AM 32.1280 34.6550 303° West 259 298 4,900  Level FlightAware
07:33AM 32.1140 34.6800 123° Southeast 259 298 4,900  Level FlightAware
07:33AM 32.1280 34.6550 303° West 259 298 4,900 -180 Level FlightAware
07:34AM 32.0470 34.7900 125° Southeast 245 282 4,800 -420 Descending FlightAware
07:34AM 32.0200 34.8210 136° Southeast 224 258 4,600 -480 Descending FlightAware
07:35AM 32.0050 34.8380 136° Southeast 209 241 4,400 -900 Descending FlightAware
07:35AM 31.9950 34.8500 134° Southeast 206 237 4,100 -1,500 Descending FlightAware
07:35AM 31.9820 34.8650 136° Southeast 206 237 3,600 -1,320 Descending FlightAware
07:36AM 31.9730 34.8870 116° Southeast 206 237 3,100 -1,200 Descending FlightAware
07:36AM 31.9770 34.9120 79° East 185 213 2,700 -1,080 Descending FlightAware
07:36AM 31.9810 34.9280 74° East 178 205 2,400 -960 Descending FlightAware
07:36AM 31.9850 34.9460 75° East 176 203 2,100 -900 Descending FlightAware
07:37AM 31.9930 34.9600 56° Northeast 165 190 1,800 -960 Descending FlightAware
07:37AM 31.9990 34.9640 29° Northeast 161 185 1,700 -840 Descending FlightAware
07:37AM 32.0190 34.9600 350° North 159 183 1,300 -900 Descending FlightAware
07:38AM 32.0250 34.9530 315° West 156 180 1,100 -1,200 Descending FlightAware
07:38AM 32.0260 34.9480 283° West 156 180 1,000 -600 Descending FlightAware
07:38AM 32.0260 34.9470 270° West 156 180 1,000 -840 Level FlightAware
07:38AM 32.0230 34.9240 261° West 155 178 600 -480 Descending FlightAware
07:39AM 32.0200 34.9050 259° West 155 178 600  Level FlightAware